createdAt,value
2022-11-04T00:01:32.810Z,11.40
2022-11-04T00:04:00.593Z,11.40
2022-11-04T00:06:28.423Z,11.50
2022-11-04T00:08:59.186Z,11.50
2022-11-04T00:11:45.533Z,11.50
2022-11-04T00:14:14.580Z,11.50
2022-11-04T00:17:00.805Z,11.60
2022-11-04T00:19:29.247Z,11.60
2022-11-04T00:22:29.097Z,11.60
2022-11-04T00:25:15.958Z,11.60
2022-11-04T00:28:01.401Z,11.60
2022-11-04T00:30:29.211Z,11.70
2022-11-04T00:33:14.771Z,11.70
2022-11-04T00:35:48.750Z,11.70
2022-11-04T00:38:16.615Z,11.70
2022-11-04T00:40:45.849Z,11.70
2022-11-04T00:43:13.800Z,11.70
2022-11-04T00:45:42.189Z,11.70
2022-11-04T00:48:11.023Z,11.70
2022-11-04T00:50:39.487Z,11.70
2022-11-04T00:53:07.562Z,11.70
2022-11-04T00:55:35.695Z,11.80
2022-11-04T00:58:04.874Z,11.80
2022-11-04T01:00:32.692Z,11.70
2022-11-04T01:03:00.929Z,11.70
2022-11-04T01:05:28.711Z,11.70
2022-11-04T01:07:57.946Z,11.70
2022-11-04T01:10:25.753Z,11.70
2022-11-04T01:12:54.025Z,11.70
2022-11-04T01:15:23.172Z,11.70
2022-11-04T01:17:51.279Z,11.70
2022-11-04T01:20:20.142Z,11.70
2022-11-04T01:22:47.965Z,11.60
2022-11-04T01:25:15.903Z,11.60
2022-11-04T01:27:43.695Z,11.60
2022-11-04T01:30:12.940Z,11.60
2022-11-04T01:32:42.091Z,11.50
2022-11-04T01:35:10.259Z,11.50
2022-11-04T01:37:38.202Z,11.50
2022-11-04T01:40:07.099Z,11.40
2022-11-04T01:42:34.927Z,11.50
2022-11-04T01:45:02.780Z,11.40
2022-11-04T01:47:37.265Z,11.40
2022-11-04T01:50:10.671Z,11.30
2022-11-04T01:52:45.323Z,11.30
2022-11-04T01:55:17.114Z,11.30
2022-11-04T01:57:48.467Z,11.30
2022-11-04T02:00:17.607Z,11.30
2022-11-04T02:02:54.648Z,11.30
2022-11-04T02:05:24.175Z,11.30
2022-11-04T02:07:57.832Z,11.30
2022-11-04T02:10:28.658Z,11.20
2022-11-04T02:12:56.854Z,11.20
2022-11-04T02:15:36.107Z,11.20
2022-11-04T02:18:21.940Z,11.70
2022-11-04T02:21:23.075Z,11.20
2022-11-04T02:24:29.198Z,11.30
2022-11-04T02:27:21.780Z,11.20
2022-11-04T02:30:07.070Z,11.20
2022-11-04T02:33:06.999Z,11.20
2022-11-04T02:35:43.769Z,11.20
2022-11-04T02:38:26.428Z,11.20
2022-11-04T02:41:01.584Z,11.20
2022-11-04T02:43:36.713Z,11.20
2022-11-04T02:46:10.251Z,11.20
2022-11-04T02:48:43.333Z,11.20
2022-11-04T02:51:16.346Z,11.30
2022-11-04T02:53:48.207Z,11.20
2022-11-04T02:56:18.444Z,11.20
2022-11-04T02:58:52.999Z,11.20
2022-11-04T03:01:23.641Z,11.20
2022-11-04T03:03:57.673Z,11.20
2022-11-04T03:06:27.591Z,11.20
2022-11-04T03:08:56.503Z,11.20
2022-11-04T03:11:26.973Z,11.20
2022-11-04T03:13:59.394Z,11.10
2022-11-04T03:16:33.968Z,11.20
2022-11-04T03:19:08.449Z,11.20
2022-11-04T03:21:41.185Z,11.20
2022-11-04T03:24:09.268Z,11.20
2022-11-04T03:26:42.568Z,11.40
2022-11-04T03:29:22.263Z,11.10
2022-11-04T03:32:00.947Z,11.10
2022-11-04T03:34:28.988Z,11.10
2022-11-04T03:36:57.336Z,11.10
2022-11-04T03:39:25.411Z,11.10
2022-11-04T03:41:57.208Z,11.10
2022-11-04T03:44:25.928Z,11.10
2022-11-04T03:46:55.467Z,11.10
2022-11-04T03:49:24.635Z,11.10
2022-11-04T03:51:53.308Z,11.10
2022-11-04T03:54:21.677Z,11.10
2022-11-04T03:57:09.246Z,11.10
2022-11-04T03:59:59.598Z,11.10
2022-11-04T04:02:39.912Z,11.10
2022-11-04T04:05:17.640Z,11.10
2022-11-04T04:07:53.489Z,11.10
2022-11-04T04:10:41.909Z,11.30
2022-11-04T04:13:19.431Z,11.10
2022-11-04T04:15:51.861Z,11.20
2022-11-04T04:18:27.275Z,11.10
2022-11-04T04:20:57.371Z,11.20
2022-11-04T04:23:46.360Z,11.20
2022-11-04T04:26:33.328Z,11.20
2022-11-04T04:29:03.181Z,11.20
2022-11-04T04:31:49.500Z,11.10
2022-11-04T04:34:21.250Z,11.10
2022-11-04T04:36:54.320Z,11.10
2022-11-04T04:39:43.267Z,11.10
2022-11-04T04:42:29.381Z,11.20
2022-11-04T04:45:06.136Z,11.10
2022-11-04T04:47:42.334Z,11.10
2022-11-04T04:50:14.049Z,11.10
2022-11-04T04:52:43.998Z,11.10
2022-11-04T04:55:12.666Z,11.10
2022-11-04T04:57:40.676Z,11.20
2022-11-04T05:00:10.882Z,11.10
2022-11-04T05:02:38.848Z,11.10
2022-11-04T05:05:07.796Z,11.10
2022-11-04T05:07:37.011Z,11.10
2022-11-04T05:10:05.443Z,11.10
2022-11-04T05:12:49.358Z,11.00
2022-11-04T05:15:17.579Z,11.10
2022-11-04T05:17:45.404Z,11.00
2022-11-04T05:20:13.595Z,11.10
2022-11-04T05:22:42.790Z,11.00
2022-11-04T05:25:10.771Z,11.00
2022-11-04T05:27:38.624Z,11.10
2022-11-04T05:30:07.613Z,11.10
2022-11-04T05:32:35.460Z,11.00
2022-11-04T05:35:03.288Z,11.00
2022-11-04T05:37:31.148Z,11.10
2022-11-04T05:40:00.312Z,11.00
2022-11-04T05:42:29.464Z,11.00
2022-11-04T05:44:57.288Z,11.00
2022-11-04T05:47:25.146Z,11.00
2022-11-04T05:49:52.929Z,11.00
2022-11-04T05:52:20.759Z,11.00
2022-11-04T05:54:48.548Z,11.00
2022-11-04T05:57:17.710Z,11.00
2022-11-04T05:59:45.498Z,10.90
2022-11-04T06:02:13.379Z,11.00
2022-11-04T06:04:41.453Z,11.00
2022-11-04T06:07:10.351Z,11.00
2022-11-04T06:09:41.030Z,10.90
2022-11-04T06:12:10.609Z,10.90
2022-11-04T06:14:39.803Z,10.90
2022-11-04T06:17:07.728Z,10.80
2022-11-04T06:19:35.607Z,10.80
2022-11-04T06:22:03.949Z,10.80
2022-11-04T06:24:31.770Z,10.80
2022-11-04T06:26:59.583Z,11.00
2022-11-04T06:29:27.475Z,10.70
2022-11-04T06:31:56.647Z,10.70
2022-11-04T06:34:24.452Z,10.60
2022-11-04T06:36:52.293Z,10.60
2022-11-04T06:39:20.217Z,10.60
2022-11-04T06:41:50.565Z,10.60
2022-11-04T06:44:19.640Z,10.60
2022-11-04T06:46:47.605Z,10.70
2022-11-04T06:49:19.971Z,10.60
2022-11-04T06:51:48.774Z,10.60
2022-11-04T06:54:17.831Z,10.60
2022-11-04T06:56:46.351Z,10.70
2022-11-04T06:59:17.879Z,10.60
2022-11-04T07:01:46.024Z,10.70
2022-11-04T07:04:14.070Z,10.70
2022-11-04T07:06:45.061Z,10.70
2022-11-04T07:09:14.700Z,10.70
2022-11-04T07:11:44.055Z,10.60
2022-11-04T07:14:12.308Z,10.60
2022-11-04T07:16:40.223Z,10.60
2022-11-04T07:19:08.146Z,10.60
2022-11-04T07:21:35.995Z,10.60
2022-11-04T07:24:05.513Z,10.60
2022-11-04T07:26:33.346Z,10.60
2022-11-04T07:29:01.203Z,10.60
2022-11-04T07:31:29.432Z,10.60
2022-11-04T07:33:57.280Z,10.60
2022-11-04T07:36:25.095Z,10.60
2022-11-04T07:38:52.902Z,10.60
2022-11-04T07:41:22.826Z,10.60
2022-11-04T07:43:51.804Z,10.60
2022-11-04T07:46:20.629Z,10.60
2022-11-04T07:48:48.728Z,10.50
2022-11-04T07:51:18.779Z,10.50
2022-11-04T07:53:46.658Z,10.50
2022-11-04T07:56:14.825Z,10.50
2022-11-04T07:58:44.432Z,10.50
2022-11-04T08:01:15.058Z,10.60
2022-11-04T08:03:43.425Z,10.50
2022-11-04T08:06:12.957Z,10.50
2022-11-04T08:08:42.178Z,10.70
2022-11-04T08:11:17.106Z,10.50
2022-11-04T08:13:47.807Z,10.50
2022-11-04T08:16:17.931Z,10.60
2022-11-04T08:18:46.796Z,10.50
2022-11-04T08:21:15.106Z,10.60
2022-11-04T08:23:42.972Z,10.50
2022-11-04T08:26:11.573Z,10.60
2022-11-04T08:28:39.945Z,10.50
2022-11-04T08:31:12.946Z,10.70
2022-11-04T08:33:41.708Z,10.50
2022-11-04T08:36:15.823Z,10.50
2022-11-04T08:38:44.123Z,10.60
2022-11-04T08:41:13.274Z,10.60
2022-11-04T08:43:41.088Z,10.60
2022-11-04T08:46:11.415Z,10.60
2022-11-04T08:48:41.079Z,10.60
2022-11-04T08:51:14.323Z,10.60
2022-11-04T08:53:42.697Z,10.60
2022-11-04T08:56:12.465Z,10.60
2022-11-04T08:58:40.651Z,10.60
2022-11-04T09:01:10.847Z,10.60
2022-11-04T09:03:39.887Z,10.70
2022-11-04T09:06:08.290Z,10.70
2022-11-04T09:08:37.899Z,10.60
2022-11-04T09:11:08.403Z,10.70
2022-11-04T09:13:39.643Z,10.70
2022-11-04T09:16:11.266Z,10.70
2022-11-04T09:18:39.605Z,10.70
2022-11-04T09:21:09.144Z,10.60
2022-11-04T09:23:37.443Z,10.60
2022-11-04T09:26:10.012Z,10.60
2022-11-04T09:28:37.991Z,10.60
2022-11-04T09:31:07.652Z,10.60
2022-11-04T09:33:36.958Z,10.60
2022-11-04T09:36:05.074Z,10.60
2022-11-04T09:38:32.922Z,10.60
2022-11-04T09:41:01.822Z,10.60
2022-11-04T09:43:46.244Z,10.60
2022-11-04T09:46:15.691Z,10.60
2022-11-04T09:48:49.332Z,10.60
2022-11-04T09:51:39.707Z,10.80
2022-11-04T09:54:16.336Z,10.50
2022-11-04T09:56:46.688Z,10.50
2022-11-04T09:59:18.767Z,10.50
2022-11-04T10:01:55.413Z,10.50
2022-11-04T10:04:34.887Z,10.50
2022-11-04T10:07:12.605Z,10.50
2022-11-04T10:09:55.152Z,10.50
2022-11-04T10:12:40.387Z,10.50
2022-11-04T10:15:35.032Z,10.50
2022-11-04T10:18:17.082Z,10.60
2022-11-04T10:20:57.988Z,10.50
2022-11-04T10:23:33.326Z,10.50
2022-11-04T10:26:08.892Z,10.50
2022-11-04T10:28:42.252Z,11.20
2022-11-04T10:31:14.713Z,10.50
2022-11-04T10:33:46.402Z,10.50
2022-11-04T10:36:16.336Z,10.60
2022-11-04T10:38:47.113Z,10.60
2022-11-04T10:41:27.334Z,10.60
2022-11-04T10:44:00.037Z,10.60
2022-11-04T10:46:47.824Z,10.60
2022-11-04T10:49:35.478Z,10.60
2022-11-04T10:52:06.359Z,10.60
2022-11-04T10:54:40.271Z,10.60
2022-11-04T10:57:08.209Z,10.60
2022-11-04T10:59:47.678Z,10.60
2022-11-04T11:02:15.623Z,10.60
2022-11-04T11:04:45.351Z,10.60
2022-11-04T11:07:22.718Z,10.70
2022-11-04T11:09:54.746Z,10.60
2022-11-04T11:12:50.121Z,10.60
2022-11-04T11:15:30.115Z,10.70
2022-11-04T11:18:11.362Z,10.70
2022-11-04T11:20:40.991Z,10.70
2022-11-04T11:23:39.587Z,10.70
2022-11-04T11:26:09.612Z,10.70
2022-11-04T11:28:40.708Z,10.70
2022-11-04T11:31:23.596Z,10.60
2022-11-04T11:33:55.721Z,10.70
2022-11-04T11:36:26.343Z,10.60
2022-11-04T11:39:03.505Z,11.10
2022-11-04T11:41:32.759Z,10.70
2022-11-04T11:44:03.869Z,10.70
2022-11-04T11:46:33.776Z,10.60
2022-11-04T11:49:03.799Z,10.60
2022-11-04T11:51:33.807Z,10.60
2022-11-04T11:54:22.643Z,10.70
2022-11-04T12:02:46.918Z,10.60
2022-11-04T12:11:13.062Z,10.60
2022-11-04T12:13:45.215Z,10.60
2022-11-04T12:16:24.910Z,10.60
2022-11-04T12:19:11.837Z,10.60
2022-11-04T12:21:45.965Z,10.60
2022-11-04T12:24:29.403Z,10.60
2022-11-04T12:27:09.063Z,10.70
2022-11-04T12:29:49.883Z,10.60
2022-11-04T12:32:26.907Z,10.60
2022-11-04T12:35:09.978Z,10.60
2022-11-04T12:37:48.755Z,10.60
2022-11-04T12:40:21.924Z,10.60
2022-11-04T12:43:08.194Z,10.60
2022-11-04T12:45:50.018Z,10.60
2022-11-04T12:48:33.163Z,10.60
2022-11-04T12:51:09.208Z,10.60
2022-11-04T12:53:51.864Z,10.70
2022-11-04T12:56:21.313Z,10.70
2022-11-04T12:59:34.077Z,10.90
2022-11-04T13:02:11.764Z,10.70
2022-11-04T13:04:45.031Z,10.90
2022-11-04T13:07:17.919Z,10.70
2022-11-04T13:09:50.454Z,10.70
2022-11-04T13:12:22.148Z,10.70
2022-11-04T13:14:54.395Z,10.70
2022-11-04T13:17:25.578Z,10.70
2022-11-04T13:19:55.743Z,10.70
2022-11-04T13:22:26.370Z,10.70
2022-11-04T13:24:59.933Z,10.60
2022-11-04T13:27:31.885Z,10.70
2022-11-04T13:30:07.167Z,10.60
2022-11-04T13:32:41.728Z,10.70
2022-11-04T13:35:16.180Z,10.60
2022-11-04T13:37:53.383Z,10.60
2022-11-04T13:40:27.300Z,10.60
2022-11-04T13:43:30.222Z,10.60
2022-11-04T13:45:59.819Z,10.60
2022-11-04T13:48:30.957Z,10.60
2022-11-04T13:51:01.864Z,10.50
2022-11-04T13:53:42.964Z,10.50
2022-11-04T13:56:32.310Z,10.50
2022-11-04T13:59:03.045Z,10.40
2022-11-04T14:01:33.569Z,10.40
2022-11-04T14:04:20.899Z,10.40
2022-11-04T14:06:57.717Z,10.40
2022-11-04T14:09:35.574Z,10.30
2022-11-04T14:12:40.067Z,10.30
2022-11-04T14:15:37.901Z,10.30
2022-11-04T14:18:28.834Z,10.30
2022-11-04T14:21:07.768Z,10.30
2022-11-04T14:23:37.699Z,10.30
2022-11-04T14:26:08.344Z,10.20
2022-11-04T14:28:37.063Z,10.30
2022-11-04T14:31:08.128Z,10.30
2022-11-04T14:33:51.337Z,10.20
2022-11-04T14:36:34.523Z,10.40
2022-11-04T14:39:06.894Z,10.30
2022-11-04T14:41:51.682Z,10.20
2022-11-04T14:44:25.929Z,10.20
2022-11-04T14:46:57.052Z,10.20
2022-11-04T14:49:38.420Z,10.20
2022-11-04T14:52:14.195Z,10.20
2022-11-04T14:54:42.507Z,10.20
2022-11-04T14:57:20.826Z,10.40
2022-11-04T14:59:49.884Z,10.20
2022-11-04T15:02:21.005Z,10.30
2022-11-04T15:04:58.648Z,10.60
2022-11-04T15:07:37.928Z,10.20
2022-11-04T15:10:20.762Z,10.30
2022-11-04T15:12:51.788Z,10.20
2022-11-04T15:15:32.551Z,10.20
2022-11-04T15:18:03.508Z,10.20
2022-11-04T15:20:34.253Z,10.20
2022-11-04T15:23:04.374Z,10.20
2022-11-04T15:25:32.687Z,10.20
2022-11-04T15:28:01.744Z,10.20
2022-11-04T15:30:31.609Z,10.20
2022-11-04T15:33:01.847Z,10.00
2022-11-04T15:35:33.338Z,10.10
2022-11-04T15:38:03.698Z,10.10
2022-11-04T15:40:34.813Z,10.10
2022-11-04T15:43:05.041Z,10.10
2022-11-04T15:45:40.653Z,10.10
2022-11-04T15:48:29.706Z,10.10
2022-11-04T15:51:11.034Z,10.00
2022-11-04T15:53:49.483Z,10.10
2022-11-04T15:56:19.800Z,10.10
2022-11-04T15:58:48.157Z,10.00
2022-11-04T16:01:17.021Z,10.00
2022-11-04T16:03:51.162Z,10.00
2022-11-04T16:06:34.673Z,10.00
2022-11-04T16:09:06.050Z,10.00
2022-11-04T16:11:34.018Z,10.00
2022-11-04T16:14:23.549Z,10.00
2022-11-04T16:16:53.811Z,10.00
2022-11-04T16:19:23.771Z,10.00
2022-11-04T16:22:00.914Z,9.90
2022-11-04T16:24:32.720Z,9.90
2022-11-04T16:27:00.968Z,9.90
2022-11-04T16:29:31.303Z,9.90
2022-11-04T16:32:17.319Z,9.90
2022-11-04T16:34:45.785Z,9.90
2022-11-04T16:37:14.978Z,9.90
2022-11-04T16:39:45.526Z,9.90
2022-11-04T16:42:14.635Z,9.80
2022-11-04T16:44:47.881Z,9.80
2022-11-04T16:47:15.775Z,9.70
2022-11-04T16:49:43.605Z,9.90
2022-11-04T16:52:18.253Z,9.70
2022-11-04T16:54:48.619Z,9.70
2022-11-04T16:57:16.816Z,9.70
2022-11-04T16:59:44.951Z,9.70
2022-11-04T17:02:21.108Z,9.70
2022-11-04T17:04:49.261Z,9.70
2022-11-04T17:07:18.470Z,9.70
2022-11-04T17:09:46.363Z,9.70
2022-11-04T17:12:14.249Z,9.70
2022-11-04T17:14:42.103Z,9.60
2022-11-04T17:17:12.054Z,9.60
2022-11-04T17:19:40.251Z,9.60
2022-11-04T17:22:09.710Z,9.60
2022-11-04T17:24:38.968Z,9.60
2022-11-04T17:27:06.826Z,9.60
2022-11-04T17:29:37.154Z,9.60
2022-11-04T17:32:05.281Z,9.70
2022-11-04T17:34:33.232Z,9.60
2022-11-04T17:37:01.076Z,9.60
2022-11-04T17:39:29.108Z,9.70
2022-11-04T17:42:27.068Z,9.60
2022-11-04T17:44:54.899Z,9.60
2022-11-04T17:47:22.748Z,9.60
2022-11-04T17:49:50.620Z,9.60
2022-11-04T17:52:18.736Z,9.60
2022-11-04T17:54:46.669Z,9.60
2022-11-04T17:57:16.795Z,9.60
2022-11-04T17:59:44.805Z,9.60
2022-11-04T18:02:12.751Z,9.60
2022-11-04T18:04:40.759Z,9.60
2022-11-04T18:07:08.595Z,9.60
2022-11-04T18:09:36.484Z,9.60
2022-11-04T18:12:22.252Z,9.60
2022-11-04T18:14:51.491Z,9.60
2022-11-04T18:17:24.408Z,9.60
2022-11-04T18:19:52.597Z,9.50
2022-11-04T18:22:20.779Z,9.50
2022-11-04T18:24:48.714Z,9.50
2022-11-04T18:27:16.810Z,9.50
2022-11-04T18:29:44.640Z,9.50
2022-11-04T18:32:13.871Z,9.50
2022-11-04T18:34:41.896Z,9.50
2022-11-04T18:37:10.091Z,9.50
2022-11-04T18:39:41.762Z,9.50
2022-11-04T18:42:09.903Z,9.50
2022-11-04T18:44:37.800Z,9.40
2022-11-04T18:47:05.677Z,9.50
2022-11-04T18:49:34.887Z,9.50
2022-11-04T18:52:02.724Z,9.50
2022-11-04T18:54:30.546Z,9.50
2022-11-04T18:56:58.377Z,9.40
2022-11-04T18:59:26.251Z,9.50
2022-11-04T19:01:59.438Z,9.40
2022-11-04T19:04:27.423Z,9.50
2022-11-04T19:06:56.646Z,9.40
2022-11-04T19:12:30.068Z,9.40
2022-11-04T19:14:57.904Z,9.40
2022-11-04T19:17:26.110Z,9.40
2022-11-04T19:19:54.015Z,9.60
2022-11-04T19:22:23.274Z,9.30
2022-11-04T19:24:51.135Z,9.30
2022-11-04T19:27:21.504Z,9.30
2022-11-04T19:29:49.520Z,9.30
2022-11-04T19:32:17.449Z,9.30
2022-11-04T19:34:45.787Z,9.20
2022-11-04T19:37:13.635Z,9.20
2022-11-04T19:39:45.002Z,9.20
2022-11-04T19:42:31.119Z,9.20
2022-11-04T19:45:01.571Z,9.20
2022-11-04T19:47:29.412Z,9.20
2022-11-04T19:49:59.934Z,9.20
2022-11-04T19:52:27.784Z,9.10
2022-11-04T19:54:56.947Z,9.20
2022-11-04T19:57:31.925Z,9.10
2022-11-04T20:00:00.137Z,9.10
2022-11-04T20:02:28.078Z,9.10
2022-11-04T20:04:55.937Z,9.20
2022-11-04T20:07:23.813Z,9.10
2022-11-04T20:09:56.370Z,9.10
2022-11-04T20:12:43.317Z,9.10
2022-11-04T20:15:13.311Z,9.10
2022-11-04T20:17:41.318Z,9.10
2022-11-04T20:20:09.568Z,9.00
2022-11-04T20:22:37.569Z,9.00
2022-11-04T20:25:07.425Z,9.00
2022-11-04T20:27:36.800Z,9.00
2022-11-04T20:30:05.724Z,8.90
2022-11-04T20:32:34.074Z,8.90
2022-11-04T20:35:03.028Z,8.90
2022-11-04T20:37:33.512Z,8.90
2022-11-04T20:40:01.528Z,8.90
2022-11-04T20:42:29.857Z,8.90
2022-11-04T20:44:59.062Z,8.90
2022-11-04T20:47:26.919Z,8.90
2022-11-04T20:49:54.738Z,8.90
2022-11-04T20:52:22.576Z,8.90
2022-11-04T20:54:50.435Z,8.80
2022-11-04T20:57:43.301Z,8.80
2022-11-04T21:00:13.875Z,8.90
2022-11-04T21:02:41.745Z,8.80
2022-11-04T21:05:10.074Z,8.80
2022-11-04T21:07:40.068Z,8.80
2022-11-04T21:10:08.411Z,8.80
2022-11-04T21:12:36.208Z,8.80
2022-11-04T21:15:04.174Z,8.90
2022-11-04T21:17:37.512Z,8.90
2022-11-04T21:20:08.912Z,9.10
2022-11-04T21:22:36.752Z,8.70
2022-11-04T21:27:32.912Z,8.70
2022-11-04T21:30:00.715Z,8.70
2022-11-04T21:32:28.527Z,8.50
2022-11-04T21:34:57.701Z,8.70
2022-11-04T21:37:25.510Z,8.70
2022-11-04T21:39:53.335Z,8.80
2022-11-04T21:42:21.176Z,8.70
2022-11-04T21:44:49.022Z,8.70
2022-11-04T21:47:16.844Z,8.70
2022-11-04T21:49:44.667Z,8.70
2022-11-04T21:52:13.983Z,9.00
2022-11-04T21:54:41.800Z,8.70
2022-11-04T21:57:09.651Z,8.70
2022-11-04T21:59:37.544Z,8.60
2022-11-04T22:02:05.488Z,8.70
2022-11-04T22:04:33.420Z,8.60
2022-11-04T22:07:01.304Z,8.70
2022-11-04T22:09:30.520Z,9.20
2022-11-04T22:11:58.368Z,8.70
2022-11-04T22:14:26.199Z,8.50
2022-11-04T22:16:54.037Z,8.80
2022-11-04T22:19:21.991Z,8.70
2022-11-04T22:21:49.830Z,8.80
2022-11-04T22:24:19.096Z,9.00
2022-11-04T22:26:48.524Z,8.80
2022-11-04T22:29:16.554Z,8.80
2022-11-04T22:31:44.693Z,8.70
2022-11-04T22:34:12.683Z,8.80
2022-11-04T22:36:40.694Z,8.90
2022-11-04T22:39:13.462Z,8.80
2022-11-04T22:41:46.075Z,8.80
2022-11-04T22:44:15.361Z,9.00
2022-11-04T22:46:43.439Z,8.80
2022-11-04T22:49:11.243Z,8.80
2022-11-04T22:51:39.051Z,9.00
2022-11-04T22:54:08.713Z,8.80
2022-11-04T22:56:39.435Z,8.70
2022-11-04T22:59:07.779Z,8.70
2022-11-04T23:01:37.102Z,8.80
2022-11-04T23:04:05.483Z,8.80
2022-11-04T23:06:33.371Z,8.80
2022-11-04T23:09:01.424Z,8.80
2022-11-04T23:11:47.932Z,8.80
2022-11-04T23:14:49.337Z,8.50
2022-11-04T23:17:38.259Z,9.00
2022-11-04T23:20:09.291Z,8.80
2022-11-04T23:22:54.457Z,8.90
2022-11-04T23:25:22.312Z,8.80
2022-11-04T23:28:09.770Z,8.90
2022-11-04T23:30:40.202Z,8.90
2022-11-04T23:33:11.833Z,8.90
2022-11-04T23:35:58.675Z,8.90
2022-11-04T23:38:28.395Z,8.80
2022-11-04T23:41:18.608Z,8.80
2022-11-04T23:43:46.814Z,8.80
2022-11-04T23:46:36.601Z,9.30
2022-11-04T23:49:27.512Z,8.90
2022-11-04T23:52:09.258Z,8.90
2022-11-04T23:54:54.658Z,8.90
2022-11-04T23:57:40.227Z,9.10
